createdAt,value
2018-05-28T00:00:14.579Z,12.30
2018-05-28T00:01:14.754Z,13.30
2018-05-28T00:02:14.935Z,12.60
2018-05-28T00:03:15.113Z,13.20
2018-05-28T00:04:15.292Z,12.70
2018-05-28T00:05:15.475Z,12.20
2018-05-28T00:06:15.660Z,12.50
2018-05-28T00:07:15.829Z,12.10
2018-05-28T00:08:16.007Z,12.40
2018-05-28T00:09:16.186Z,12.00
2018-05-28T00:10:16.360Z,12.80
2018-05-28T00:11:16.546Z,11.80
2018-05-28T00:12:16.762Z,12.30
2018-05-28T00:13:16.948Z,12.20
2018-05-28T00:14:17.118Z,12.10
2018-05-28T00:15:17.292Z,12.30
2018-05-28T00:16:17.491Z,12.40
2018-05-28T00:17:17.660Z,12.40
2018-05-28T00:18:17.832Z,12.60
2018-05-28T00:19:18.019Z,12.00
2018-05-28T00:20:18.293Z,12.50
2018-05-28T00:21:18.345Z,12.70
2018-05-28T00:22:18.537Z,12.80
2018-05-28T00:23:18.709Z,12.60
2018-05-28T00:24:18.885Z,12.70
2018-05-28T00:25:19.061Z,13.00
2018-05-28T00:26:19.237Z,13.60
2018-05-28T00:27:19.410Z,13.60
2018-05-28T00:28:19.594Z,12.90
2018-05-28T00:29:19.773Z,14.00
2018-05-28T00:30:19.952Z,14.00
2018-05-28T00:31:20.136Z,13.20
2018-05-28T00:32:25.639Z,14.20
2018-05-28T00:33:22.152Z,13.40
2018-05-28T00:34:23.547Z,12.90
2018-05-28T00:35:21.961Z,13.20
2018-05-28T00:36:20.947Z,13.80
2018-05-28T00:37:21.123Z,14.10
2018-05-28T00:38:21.303Z,13.60
2018-05-28T00:39:21.495Z,13.40
2018-05-28T00:40:21.668Z,13.90
2018-05-28T00:41:21.851Z,13.70
2018-05-28T00:42:22.032Z,13.00
2018-05-28T00:43:22.213Z,13.50
2018-05-28T00:44:22.388Z,13.50
2018-05-28T00:45:22.559Z,13.20
2018-05-28T00:46:22.737Z,13.30
2018-05-28T00:47:22.914Z,13.90
2018-05-28T00:48:23.093Z,13.40
2018-05-28T00:49:23.266Z,13.30
2018-05-28T00:50:23.452Z,14.10
2018-05-28T00:51:23.630Z,14.50
2018-05-28T00:52:23.799Z,13.70
2018-05-28T00:53:23.975Z,14.70
2018-05-28T00:54:24.162Z,14.70
2018-05-28T00:55:24.331Z,13.50
2018-05-28T00:56:24.508Z,13.50
2018-05-28T00:57:24.682Z,13.70
2018-05-28T00:58:24.869Z,14.80
2018-05-28T00:59:25.052Z,14.10
2018-05-28T01:00:25.221Z,15.00
2018-05-28T01:01:25.403Z,14.30
2018-05-28T01:02:25.580Z,14.90
2018-05-28T01:03:25.761Z,14.30
2018-05-28T01:04:25.937Z,13.60
2018-05-28T01:05:26.111Z,14.20
2018-05-28T01:06:26.299Z,14.70
2018-05-28T01:07:26.467Z,14.20
2018-05-28T01:08:26.641Z,14.10
2018-05-28T01:09:26.822Z,13.50
2018-05-28T01:10:26.997Z,13.90
2018-05-28T01:11:27.178Z,13.30
2018-05-28T01:12:27.353Z,13.10
2018-05-28T01:13:27.524Z,14.20
2018-05-28T01:14:27.701Z,13.90
2018-05-28T01:15:27.879Z,13.40
2018-05-28T01:16:28.057Z,13.10
2018-05-28T01:17:28.231Z,14.90
2018-05-28T01:18:28.407Z,14.20
2018-05-28T01:19:28.580Z,13.80
2018-05-28T01:20:28.761Z,14.70
2018-05-28T01:21:28.940Z,14.00
2018-05-28T01:22:29.122Z,14.30
2018-05-28T01:23:29.298Z,15.10
2018-05-28T01:24:29.468Z,15.10
2018-05-28T01:25:29.642Z,15.10
2018-05-28T01:26:29.824Z,15.10
2018-05-28T01:27:29.999Z,14.50
2018-05-28T01:28:30.183Z,15.60
2018-05-28T01:29:30.351Z,15.70
2018-05-28T01:30:30.525Z,15.40
2018-05-28T01:31:30.700Z,15.40
2018-05-28T01:32:30.875Z,15.10
2018-05-28T01:33:31.050Z,15.20
2018-05-28T01:34:31.229Z,14.80
2018-05-28T01:35:31.404Z,15.70
2018-05-28T01:36:31.625Z,15.20
2018-05-28T01:37:31.751Z,14.40
2018-05-28T01:38:31.929Z,15.00
2018-05-28T01:39:32.103Z,15.70
2018-05-28T01:40:32.282Z,15.80
2018-05-28T01:41:32.455Z,15.70
2018-05-28T01:42:32.631Z,16.40
2018-05-28T01:43:32.802Z,15.70
2018-05-28T01:44:32.979Z,15.70
2018-05-28T01:45:33.156Z,16.10
2018-05-28T01:46:33.333Z,15.50
2018-05-28T01:47:33.511Z,15.70
2018-05-28T01:48:33.684Z,15.70
2018-05-28T01:49:33.861Z,15.30
2018-05-28T01:50:34.037Z,15.40
2018-05-28T01:51:34.212Z,16.00
2018-05-28T01:52:34.391Z,15.30
2018-05-28T01:53:34.572Z,15.60
2018-05-28T01:54:34.752Z,15.30
2018-05-28T01:55:34.924Z,15.10
2018-05-28T01:56:35.113Z,15.70
2018-05-28T01:57:35.287Z,15.10
2018-05-28T01:58:35.464Z,15.40
2018-05-28T01:59:35.633Z,15.90
2018-05-28T02:00:35.814Z,15.90
2018-05-28T02:01:35.987Z,15.70
2018-05-28T02:02:36.160Z,15.50
2018-05-28T02:03:36.346Z,15.50
2018-05-28T02:04:36.517Z,15.00
2018-05-28T02:05:36.696Z,14.80
2018-05-28T02:06:36.869Z,14.30
2018-05-28T02:07:37.043Z,14.40
2018-05-28T02:08:37.218Z,14.80
2018-05-28T02:09:37.395Z,14.90
2018-05-28T02:10:37.576Z,15.00
2018-05-28T02:11:37.759Z,15.90
2018-05-28T02:12:37.936Z,16.70
2018-05-28T02:13:38.115Z,17.30
2018-05-28T02:14:38.286Z,16.90
2018-05-28T02:15:38.465Z,16.60
2018-05-28T02:16:38.642Z,16.30
2018-05-28T02:17:38.816Z,16.50
2018-05-28T02:18:39.001Z,16.00
2018-05-28T02:19:39.176Z,15.90
2018-05-28T02:20:39.351Z,16.50
2018-05-28T02:21:39.528Z,16.00
2018-05-28T02:22:39.707Z,15.80
2018-05-28T02:23:39.891Z,16.30
2018-05-28T02:24:40.064Z,17.00
2018-05-28T02:25:40.247Z,17.30
2018-05-28T02:26:40.423Z,16.60
2018-05-28T02:27:40.602Z,16.60
2018-05-28T02:28:40.779Z,16.60
2018-05-28T02:29:40.968Z,16.30
2018-05-28T02:30:41.147Z,15.90
2018-05-28T02:31:41.321Z,16.20
2018-05-28T02:32:41.502Z,16.30
2018-05-28T02:33:41.677Z,16.10
2018-05-28T02:34:41.866Z,15.00
2018-05-28T02:35:42.041Z,15.20
2018-05-28T02:36:42.219Z,14.80
2018-05-28T02:37:42.399Z,14.50
2018-05-28T02:38:42.578Z,14.80
2018-05-28T02:39:42.764Z,14.40
2018-05-28T02:40:42.937Z,14.50
2018-05-28T02:41:43.120Z,14.50
2018-05-28T02:42:43.293Z,15.00
2018-05-28T02:43:43.472Z,14.20
2018-05-28T02:44:43.647Z,14.20
2018-05-28T02:45:43.828Z,13.40
2018-05-28T02:46:44.018Z,13.70
2018-05-28T02:47:44.189Z,13.70
2018-05-28T02:48:44.364Z,13.40
2018-05-28T02:49:44.543Z,13.10
2018-05-28T02:50:44.719Z,13.60
2018-05-28T02:51:44.896Z,13.90
2018-05-28T02:52:45.064Z,14.10
2018-05-28T02:53:45.244Z,13.80
2018-05-28T02:54:45.424Z,14.40
2018-05-28T02:55:45.595Z,14.00
2018-05-28T02:56:45.769Z,14.50
2018-05-28T02:57:45.944Z,14.30
2018-05-28T02:58:46.124Z,14.70
2018-05-28T02:59:46.303Z,13.30
2018-05-28T03:00:46.487Z,14.20
2018-05-28T03:01:46.667Z,13.40
2018-05-28T03:02:46.842Z,13.30
2018-05-28T03:03:47.028Z,13.30
2018-05-28T03:04:47.191Z,12.70
2018-05-28T03:05:47.364Z,12.70
2018-05-28T03:06:47.537Z,13.30
2018-05-28T03:07:47.713Z,13.30
2018-05-28T03:08:47.890Z,13.10
2018-05-28T03:09:48.063Z,12.50
2018-05-28T03:10:48.237Z,12.40
2018-05-28T03:11:48.409Z,12.80
2018-05-28T03:12:48.585Z,13.20
2018-05-28T03:13:48.760Z,12.90
2018-05-28T03:14:48.933Z,12.60
2018-05-28T03:15:49.106Z,12.80
2018-05-28T03:16:49.284Z,13.40
2018-05-28T03:17:49.460Z,12.90
2018-05-28T03:18:49.634Z,12.90
2018-05-28T03:19:49.808Z,12.60
2018-05-28T03:20:49.988Z,12.90
2018-05-28T03:21:50.159Z,12.80
2018-05-28T03:22:50.332Z,13.10
2018-05-28T03:23:50.525Z,13.30
2018-05-28T03:24:50.696Z,13.50
2018-05-28T03:25:50.872Z,14.00
2018-05-28T03:26:51.044Z,14.50
2018-05-28T03:27:51.218Z,14.30
2018-05-28T03:28:51.393Z,14.30
2018-05-28T03:29:51.572Z,14.30
2018-05-28T03:30:51.752Z,14.60
2018-05-28T03:31:51.931Z,14.60
2018-05-28T03:32:52.105Z,14.60
2018-05-28T03:33:52.281Z,14.70
2018-05-28T03:34:52.466Z,13.90
2018-05-28T03:35:52.646Z,15.10
2018-05-28T03:36:52.829Z,14.30
2018-05-28T03:37:53.166Z,13.90
2018-05-28T03:38:53.183Z,14.00
2018-05-28T03:39:53.354Z,14.20
2018-05-28T03:40:53.528Z,13.90
2018-05-28T03:41:53.705Z,13.80
2018-05-28T03:42:53.884Z,13.60
2018-05-28T03:43:54.319Z,13.50
2018-05-28T03:44:54.246Z,12.60
2018-05-28T03:45:54.427Z,13.70
2018-05-28T03:46:54.604Z,13.10
2018-05-28T03:47:54.811Z,13.50
2018-05-28T03:48:55.000Z,13.40
2018-05-28T03:49:55.177Z,13.00
2018-05-28T03:50:55.347Z,13.40
2018-05-28T03:51:55.536Z,13.70
2018-05-28T03:52:55.711Z,13.60
2018-05-28T03:53:55.882Z,12.90
2018-05-28T03:54:56.056Z,13.40
2018-05-28T03:55:56.235Z,13.20
2018-05-28T03:56:56.413Z,13.70
2018-05-28T03:57:56.593Z,12.70
2018-05-28T03:58:56.770Z,12.80
2018-05-28T03:59:56.954Z,13.00
2018-05-28T04:00:57.134Z,13.60
2018-05-28T04:01:57.313Z,13.60
2018-05-28T04:02:57.486Z,14.10
2018-05-28T04:03:57.922Z,13.70
2018-05-28T04:04:57.881Z,13.60
2018-05-28T04:05:58.060Z,14.30
2018-05-28T04:06:58.236Z,14.40
2018-05-28T04:07:58.408Z,14.00
2018-05-28T04:08:58.590Z,14.10
2018-05-28T04:09:58.764Z,14.70
2018-05-28T04:10:58.943Z,14.80
2018-05-28T04:11:59.127Z,14.40
2018-05-28T04:12:59.298Z,13.80
2018-05-28T04:13:59.477Z,14.50
2018-05-28T04:14:59.648Z,15.10
2018-05-28T04:15:59.836Z,14.60
2018-05-28T04:17:03.411Z,14.90
2018-05-28T04:18:03.523Z,15.60
2018-05-28T04:19:05.337Z,15.10
2018-05-28T04:20:00.508Z,15.30
2018-05-28T04:21:00.604Z,14.50
2018-05-28T04:22:01.166Z,14.40
2018-05-28T04:23:07.947Z,14.50
2018-05-28T04:24:01.146Z,15.00
2018-05-28T04:25:01.322Z,15.10
2018-05-28T04:26:01.494Z,15.00
2018-05-28T04:27:01.874Z,15.20
2018-05-28T04:28:01.912Z,15.70
2018-05-28T04:29:02.035Z,16.00
2018-05-28T04:30:02.221Z,15.10
2018-05-28T04:31:02.424Z,14.90
2018-05-28T04:32:02.599Z,15.00
2018-05-28T04:33:02.779Z,15.50
2018-05-28T04:34:02.967Z,15.70
2018-05-28T04:35:03.146Z,15.60
2018-05-28T04:36:03.332Z,15.70
2018-05-28T04:37:03.505Z,15.80
2018-05-28T04:38:03.690Z,14.90
2018-05-28T04:39:03.873Z,14.50
2018-05-28T04:40:04.047Z,14.60
2018-05-28T04:41:04.228Z,14.60
2018-05-28T04:42:04.412Z,15.10
2018-05-28T04:43:04.586Z,14.80
2018-05-28T04:44:04.768Z,14.20
2018-05-28T04:45:04.948Z,14.40
2018-05-28T04:46:05.122Z,15.40
2018-05-28T04:47:05.301Z,15.40
2018-05-28T04:48:07.524Z,15.00
2018-05-28T04:49:05.695Z,14.10
2018-05-28T04:50:05.874Z,14.20
2018-05-28T04:51:06.089Z,13.30
2018-05-28T04:52:06.277Z,13.10
2018-05-28T04:53:06.452Z,12.70
2018-05-28T04:54:06.636Z,12.60
2018-05-28T04:55:06.962Z,11.70
2018-05-28T04:56:07.036Z,12.20
2018-05-28T04:57:07.222Z,11.20
2018-05-28T04:58:07.398Z,10.90
2018-05-28T04:59:07.576Z,12.00
2018-05-28T05:00:07.757Z,11.80
2018-05-28T05:01:07.946Z,12.30
2018-05-28T05:02:08.128Z,11.90
2018-05-28T05:03:08.304Z,12.00
2018-05-28T05:04:08.481Z,11.40
2018-05-28T05:05:08.672Z,12.10
2018-05-28T05:06:09.131Z,12.90
2018-05-28T05:07:08.989Z,11.90
2018-05-28T05:08:09.179Z,12.20
2018-05-28T05:09:09.361Z,11.90
2018-05-28T05:10:09.558Z,11.00
2018-05-28T05:11:09.746Z,11.40
2018-05-28T05:12:09.934Z,11.30
2018-05-28T05:13:10.121Z,11.60
2018-05-28T05:14:10.302Z,10.60
2018-05-28T05:15:10.495Z,11.00
2018-05-28T05:16:10.678Z,11.00
2018-05-28T05:17:10.856Z,11.00
2018-05-28T05:18:11.079Z,11.50
2018-05-28T05:19:11.224Z,11.50
2018-05-28T05:20:11.401Z,12.30
2018-05-28T05:21:11.587Z,11.50
2018-05-28T05:22:11.762Z,11.70
2018-05-28T05:23:11.970Z,12.50
2018-05-28T05:24:12.144Z,11.80
2018-05-28T05:25:12.318Z,12.60
2018-05-28T05:26:12.498Z,12.40
2018-05-28T05:27:12.675Z,12.40
2018-05-28T05:28:12.852Z,12.90
2018-05-28T05:29:13.032Z,12.60
2018-05-28T05:30:13.211Z,12.80
2018-05-28T05:31:13.386Z,12.30
2018-05-28T05:32:13.569Z,11.70
2018-05-28T05:33:15.060Z,12.50
2018-05-28T05:34:15.189Z,13.10
2018-05-28T05:35:14.122Z,13.10
2018-05-28T05:36:14.318Z,12.50
2018-05-28T05:37:14.488Z,12.00
2018-05-28T05:38:14.669Z,12.30
2018-05-28T05:39:14.847Z,11.50
2018-05-28T05:40:15.036Z,10.90
2018-05-28T05:41:15.225Z,11.60
2018-05-28T05:42:15.429Z,11.20
2018-05-28T05:43:15.563Z,10.70
2018-05-28T05:44:15.736Z,11.60
2018-05-28T05:45:15.920Z,10.90
2018-05-28T05:46:16.098Z,10.50
2018-05-28T05:47:16.278Z,9.70
2018-05-28T05:48:16.461Z,10.10
2018-05-28T05:49:16.638Z,11.40
2018-05-28T05:50:16.912Z,10.00
2018-05-28T05:51:17.078Z,9.10
2018-05-28T05:52:17.141Z,8.70
2018-05-28T05:53:17.321Z,9.00
2018-05-28T05:54:17.510Z,9.00
2018-05-28T05:55:17.697Z,9.00
2018-05-28T05:56:17.876Z,8.80
2018-05-28T05:57:18.055Z,8.20
2018-05-28T05:58:18.232Z,7.80
2018-05-28T05:59:18.408Z,7.70
2018-05-28T06:00:18.591Z,8.20
2018-05-28T06:01:18.769Z,7.60
2018-05-28T06:02:18.955Z,8.00
2018-05-28T06:03:19.131Z,8.00
2018-05-28T06:04:19.308Z,7.90
2018-05-28T06:05:19.481Z,8.20
2018-05-28T06:06:19.666Z,8.10
2018-05-28T06:07:19.839Z,7.70
2018-05-28T06:08:20.029Z,7.80
2018-05-28T06:09:20.212Z,7.70
2018-05-28T06:10:20.395Z,8.30
2018-05-28T06:11:20.576Z,8.60
2018-05-28T06:12:20.757Z,7.90
2018-05-28T06:13:20.952Z,8.00
2018-05-28T06:14:21.152Z,8.80
2018-05-28T06:15:21.336Z,8.70
2018-05-28T06:16:21.529Z,8.60
2018-05-28T06:17:21.708Z,9.50
2018-05-28T06:18:21.887Z,8.90
2018-05-28T06:19:22.122Z,8.70
2018-05-28T06:20:22.195Z,9.20
2018-05-28T06:21:22.381Z,8.90
2018-05-28T06:22:22.568Z,9.20
2018-05-28T06:23:22.754Z,8.90
2018-05-28T06:24:22.930Z,9.00
2018-05-28T06:25:23.125Z,9.20
2018-05-28T06:26:23.314Z,9.00
2018-05-28T06:27:23.501Z,8.70
2018-05-28T06:28:23.689Z,9.00
2018-05-28T06:29:23.866Z,9.30
2018-05-28T06:30:24.047Z,9.30
2018-05-28T06:31:24.252Z,8.60
2018-05-28T06:32:24.514Z,9.00
2018-05-28T06:33:24.631Z,8.50
2018-05-28T06:34:24.805Z,8.80
2018-05-28T06:35:24.985Z,8.90
2018-05-28T06:36:25.166Z,9.00
2018-05-28T06:37:25.351Z,8.00
2018-05-28T06:38:25.536Z,8.10
2018-05-28T06:39:26.308Z,8.40
2018-05-28T06:40:25.914Z,8.10
2018-05-28T06:41:26.110Z,7.60
2018-05-28T06:42:26.296Z,7.90
2018-05-28T06:43:26.483Z,7.80
2018-05-28T06:44:26.658Z,7.90
2018-05-28T06:45:29.572Z,7.40
2018-05-28T06:46:30.334Z,8.20
2018-05-28T06:47:27.405Z,7.90
2018-05-28T06:48:27.483Z,8.20
2018-05-28T06:49:29.687Z,8.00
2018-05-28T06:50:29.009Z,8.00
2018-05-28T06:51:29.230Z,7.60
2018-05-28T06:52:30.265Z,7.50
2018-05-28T06:53:31.249Z,7.20
2018-05-28T06:54:28.775Z,7.60
2018-05-28T06:55:30.516Z,7.10
2018-05-28T06:56:30.418Z,6.90
2018-05-28T06:57:31.810Z,6.90
2018-05-28T06:58:28.935Z,6.80
2018-05-28T06:59:29.127Z,6.90
2018-05-28T07:00:31.643Z,6.70
2018-05-28T07:01:29.539Z,6.80
2018-05-28T07:02:29.727Z,5.70
2018-05-28T07:03:29.916Z,5.90
2018-05-28T07:04:30.101Z,6.20
2018-05-28T07:05:30.282Z,6.20
2018-05-28T07:06:30.483Z,5.80
2018-05-28T07:07:30.664Z,5.90
2018-05-28T07:08:31.068Z,6.10
2018-05-28T07:09:31.066Z,6.00
2018-05-28T07:10:31.267Z,5.90
2018-05-28T07:11:31.655Z,5.70
2018-05-28T07:12:31.699Z,5.60
2018-05-28T07:13:31.893Z,5.90
2018-05-28T07:14:32.117Z,5.60
2018-05-28T07:15:32.303Z,5.50
2018-05-28T07:16:32.495Z,5.70
2018-05-28T07:17:32.707Z,6.10
2018-05-28T07:18:33.242Z,5.70
2018-05-28T07:19:33.041Z,5.40
2018-05-28T07:20:33.427Z,5.60
2018-05-28T07:21:33.484Z,5.60
2018-05-28T07:22:33.741Z,5.60
2018-05-28T07:23:33.763Z,5.80
2018-05-28T07:24:33.961Z,5.30
2018-05-28T07:25:34.147Z,5.40
2018-05-28T07:26:34.342Z,5.70
2018-05-28T07:27:34.546Z,5.30
2018-05-28T07:28:34.720Z,5.10
2018-05-28T07:29:34.931Z,5.20
2018-05-28T07:30:35.377Z,5.00
2018-05-28T07:31:35.593Z,5.20
2018-05-28T07:32:35.737Z,4.90
2018-05-28T07:33:35.978Z,5.20
2018-05-28T07:34:36.173Z,5.10
2018-05-28T07:35:36.570Z,5.30
2018-05-28T07:36:36.560Z,5.00
2018-05-28T07:37:36.752Z,4.80
2018-05-28T07:38:36.942Z,5.10
2018-05-28T07:39:38.744Z,5.00
2018-05-28T07:40:38.401Z,4.60
2018-05-28T07:41:37.428Z,5.10
2018-05-28T07:42:37.721Z,5.10
2018-05-28T07:43:37.583Z,4.60
2018-05-28T07:44:37.801Z,4.60
2018-05-28T07:45:37.996Z,4.80
2018-05-28T07:46:38.178Z,4.90
2018-05-28T07:47:38.367Z,4.60
2018-05-28T07:48:38.569Z,4.70
2018-05-28T07:49:38.761Z,4.50
2018-05-28T07:50:38.949Z,4.40
2018-05-28T07:51:39.147Z,4.50
2018-05-28T07:52:39.337Z,4.70
2018-05-28T07:53:39.550Z,4.40
2018-05-28T07:54:39.717Z,4.60
2018-05-28T07:55:39.912Z,4.80
2018-05-28T07:56:40.106Z,4.70
2018-05-28T07:57:40.319Z,4.60
2018-05-28T07:58:40.512Z,5.10
2018-05-28T07:59:40.734Z,4.50
2018-05-28T08:00:40.892Z,4.60
2018-05-28T08:01:41.081Z,4.50
2018-05-28T08:02:41.272Z,4.30
2018-05-28T08:03:41.459Z,4.40
2018-05-28T08:04:41.646Z,4.30
2018-05-28T08:05:41.837Z,4.50
2018-05-28T08:06:42.030Z,4.20
2018-05-28T08:07:42.232Z,3.90
2018-05-28T08:08:42.416Z,4.20
2018-05-28T08:09:42.607Z,3.80
2018-05-28T08:10:42.806Z,4.00
2018-05-28T08:11:42.997Z,4.20
2018-05-28T08:12:43.202Z,4.40
2018-05-28T08:13:43.377Z,4.50
2018-05-28T08:14:43.579Z,4.10
2018-05-28T08:15:43.783Z,4.20
2018-05-28T08:16:43.969Z,4.10
2018-05-28T08:17:44.156Z,3.90
2018-05-28T08:18:44.343Z,4.10
2018-05-28T08:19:44.536Z,3.60
2018-05-28T08:20:44.727Z,3.90
2018-05-28T08:21:44.917Z,4.30
2018-05-28T08:22:45.169Z,3.80
2018-05-28T08:23:45.309Z,3.90
2018-05-28T08:24:45.505Z,3.80
2018-05-28T08:25:45.696Z,3.90
2018-05-28T08:26:45.893Z,4.10
2018-05-28T08:27:46.096Z,3.90
2018-05-28T08:28:46.286Z,4.40
2018-05-28T08:29:46.484Z,3.90
2018-05-28T08:30:46.689Z,4.20
2018-05-28T08:31:46.878Z,3.80
2018-05-28T08:32:47.058Z,4.70
2018-05-28T08:33:47.250Z,4.00
2018-05-28T08:34:47.453Z,4.40
2018-05-28T08:35:47.731Z,4.20
2018-05-28T08:36:47.889Z,4.20
2018-05-28T08:37:48.086Z,3.90
2018-05-28T08:38:48.282Z,3.60
2018-05-28T08:39:48.491Z,4.00
2018-05-28T08:40:48.673Z,3.80
2018-05-28T08:41:48.885Z,3.80
2018-05-28T08:42:49.058Z,4.10
2018-05-28T08:43:49.252Z,3.90
2018-05-28T08:44:49.445Z,3.60
2018-05-28T08:45:49.641Z,3.50
2018-05-28T08:46:49.833Z,4.50
2018-05-28T08:47:50.030Z,3.50
2018-05-28T08:48:50.219Z,3.30
2018-05-28T08:49:50.407Z,3.40
2018-05-28T08:50:50.594Z,3.80
2018-05-28T08:51:50.794Z,3.80
2018-05-28T08:52:50.990Z,3.90
2018-05-28T08:53:51.188Z,3.80
2018-05-28T08:54:51.374Z,4.10
2018-05-28T08:55:51.570Z,4.10
2018-05-28T08:56:51.758Z,3.90
2018-05-28T08:57:51.947Z,3.80
2018-05-28T08:58:52.197Z,3.90
2018-05-28T08:59:52.343Z,3.70
2018-05-28T09:00:52.717Z,3.90
2018-05-28T09:01:52.664Z,3.90
2018-05-28T09:02:52.887Z,3.70
2018-05-28T09:03:53.046Z,3.70
2018-05-28T09:04:53.237Z,3.70
2018-05-28T09:05:53.426Z,3.90
2018-05-28T09:06:53.631Z,3.80
2018-05-28T09:07:53.822Z,3.80
2018-05-28T09:08:54.019Z,3.80
2018-05-28T09:09:54.218Z,3.80
2018-05-28T09:10:54.393Z,3.90
2018-05-28T09:11:54.592Z,3.90
2018-05-28T09:12:54.779Z,4.00
2018-05-28T09:13:54.975Z,3.90
2018-05-28T09:14:56.366Z,4.00
2018-05-28T09:15:56.913Z,3.90
2018-05-28T09:16:56.879Z,4.30
2018-05-28T09:17:55.669Z,4.10
2018-05-28T09:18:57.353Z,4.20
2018-05-28T09:19:57.380Z,3.90
2018-05-28T09:20:57.948Z,3.50
2018-05-28T09:21:56.469Z,4.10
2018-05-28T09:22:56.667Z,3.90
2018-05-28T09:23:56.858Z,4.20
2018-05-28T09:24:59.998Z,4.00
2018-05-28T09:26:00.384Z,3.90
2018-05-28T09:26:57.657Z,4.10
2018-05-28T09:27:57.572Z,3.80
2018-05-28T09:28:57.761Z,3.80
2018-05-28T09:29:57.952Z,5.10
2018-05-28T09:30:58.141Z,4.70
2018-05-28T09:31:58.333Z,4.50
2018-05-28T09:32:58.531Z,3.80
2018-05-28T09:33:58.724Z,3.50
2018-05-28T09:34:58.970Z,3.60
2018-05-28T09:35:59.041Z,3.60
2018-05-28T09:36:59.232Z,4.10
2018-05-28T09:37:59.436Z,3.60
2018-05-28T09:38:59.614Z,3.60
2018-05-28T09:39:59.829Z,4.20
2018-05-28T09:41:00.040Z,4.50
2018-05-28T09:42:00.223Z,3.80
2018-05-28T09:43:00.418Z,3.90
2018-05-28T09:44:00.607Z,3.90
2018-05-28T09:45:00.798Z,4.10
2018-05-28T09:46:01.057Z,4.30
2018-05-28T09:47:01.191Z,4.20
2018-05-28T09:48:01.379Z,3.70
2018-05-28T09:49:01.569Z,3.80
2018-05-28T09:50:01.761Z,3.50
2018-05-28T09:51:02.708Z,3.60
2018-05-28T09:52:02.166Z,3.80
2018-05-28T09:53:02.351Z,3.50
2018-05-28T09:54:02.538Z,3.60
2018-05-28T09:55:02.731Z,3.90
2018-05-28T09:56:02.916Z,3.50
2018-05-28T09:57:04.569Z,3.60
2018-05-28T09:58:03.326Z,3.90
2018-05-28T09:59:03.511Z,3.60
2018-05-28T10:00:03.702Z,3.80
2018-05-28T10:01:03.895Z,3.80
2018-05-28T10:02:04.090Z,3.50
2018-05-28T10:03:04.275Z,3.40
2018-05-28T10:04:04.465Z,3.20
2018-05-28T10:05:04.668Z,3.20
2018-05-28T10:06:05.182Z,3.30
2018-05-28T10:07:05.032Z,3.30
2018-05-28T10:08:05.235Z,3.50
2018-05-28T10:09:05.474Z,3.70
2018-05-28T10:10:05.625Z,3.40
2018-05-28T10:11:05.811Z,3.30
2018-05-28T10:12:05.999Z,3.30
2018-05-28T10:13:06.226Z,3.30
2018-05-28T10:14:06.379Z,3.30
2018-05-28T10:15:06.572Z,3.10
2018-05-28T10:16:06.761Z,3.30
2018-05-28T10:17:06.944Z,3.30
2018-05-28T10:18:07.133Z,3.40
2018-05-28T10:19:07.313Z,3.70
2018-05-28T10:20:07.613Z,3.60
2018-05-28T10:21:07.671Z,3.50
2018-05-28T10:22:07.879Z,3.30
2018-05-28T10:23:08.045Z,3.40
2018-05-28T10:24:08.297Z,3.30
2018-05-28T10:25:08.367Z,3.40
2018-05-28T10:26:08.562Z,3.30
2018-05-28T10:27:08.787Z,3.30
2018-05-28T10:28:08.962Z,3.40
2018-05-28T10:29:09.148Z,3.20
2018-05-28T10:30:09.334Z,3.50
2018-05-28T10:31:09.526Z,3.50
2018-05-28T10:32:09.718Z,3.60
2018-05-28T10:33:09.915Z,3.30
2018-05-28T10:34:10.102Z,3.40
2018-05-28T10:35:10.316Z,3.40
2018-05-28T10:36:10.505Z,3.30
2018-05-28T10:37:10.932Z,3.40
2018-05-28T10:38:10.865Z,3.90
2018-05-28T10:39:11.050Z,4.30
2018-05-28T10:40:11.242Z,4.40
2018-05-28T10:41:11.505Z,3.50
2018-05-28T10:42:11.623Z,4.30
2018-05-28T10:43:11.815Z,4.50
2018-05-28T10:44:11.996Z,4.90
2018-05-28T10:45:12.189Z,4.10
2018-05-28T10:46:12.389Z,4.40
2018-05-28T10:47:12.572Z,3.60
2018-05-28T10:48:12.758Z,3.50
2018-05-28T10:49:12.950Z,3.70
2018-05-28T10:50:13.148Z,4.30
2018-05-28T10:51:13.333Z,4.90
2018-05-28T10:52:13.528Z,4.90
2018-05-28T10:53:13.735Z,5.20
2018-05-28T10:54:16.505Z,4.50
2018-05-28T10:55:14.090Z,4.40
2018-05-28T10:56:14.508Z,4.40
2018-05-28T10:57:14.439Z,4.40
2018-05-28T10:58:14.700Z,4.30
2018-05-28T10:59:14.857Z,4.20
2018-05-28T11:00:15.051Z,3.70
2018-05-28T11:01:15.291Z,3.30
2018-05-28T11:02:15.470Z,4.00
2018-05-28T11:03:15.659Z,3.70
2018-05-28T11:04:15.854Z,3.80
2018-05-28T11:05:17.209Z,3.50
2018-05-28T11:06:16.187Z,3.80
2018-05-28T11:07:16.374Z,3.40
2018-05-28T11:08:16.604Z,3.50
2018-05-28T11:09:16.764Z,4.20
2018-05-28T11:10:16.946Z,4.50
2018-05-28T11:11:17.135Z,3.70
2018-05-28T11:12:17.318Z,3.50
2018-05-28T11:13:17.508Z,3.70
2018-05-28T11:14:17.698Z,3.80
2018-05-28T11:15:17.893Z,3.70
2018-05-28T11:16:18.318Z,3.60
2018-05-28T11:17:18.325Z,3.90
2018-05-28T11:18:18.477Z,4.20
2018-05-28T11:19:18.669Z,4.10
2018-05-28T11:20:19.514Z,4.20
2018-05-28T11:21:19.031Z,4.30
2018-05-28T11:22:19.219Z,4.80
2018-05-28T11:23:19.413Z,4.50
2018-05-28T11:24:19.670Z,3.80
2018-05-28T11:25:19.761Z,4.10
2018-05-28T11:26:19.960Z,4.10
2018-05-28T11:27:20.156Z,4.10
2018-05-28T11:28:20.359Z,4.30
2018-05-28T11:29:20.800Z,4.40
2018-05-28T11:30:21.311Z,4.10
2018-05-28T11:31:21.103Z,4.00
2018-05-28T11:32:21.060Z,3.80
2018-05-28T11:33:21.243Z,3.90
2018-05-28T11:34:21.444Z,4.00
2018-05-28T11:35:21.640Z,4.10
2018-05-28T11:36:21.820Z,4.00
2018-05-28T11:37:22.017Z,3.90
2018-05-28T11:38:22.216Z,4.30
2018-05-28T11:39:22.409Z,3.90
2018-05-28T11:40:22.601Z,4.20
2018-05-28T11:41:23.523Z,4.10
2018-05-28T11:42:22.994Z,3.90
2018-05-28T11:43:23.183Z,4.10
2018-05-28T11:44:23.381Z,3.90
2018-05-28T11:45:23.566Z,3.90
2018-05-28T11:46:23.753Z,4.10
2018-05-28T11:47:23.944Z,4.00
2018-05-28T11:48:24.131Z,4.00
2018-05-28T11:49:24.352Z,4.00
2018-05-28T11:50:24.548Z,4.10
2018-05-28T11:51:24.755Z,4.10
2018-05-28T11:52:24.927Z,4.10
2018-05-28T11:53:25.134Z,4.00
2018-05-28T11:54:25.305Z,3.60
2018-05-28T11:55:25.490Z,3.40
2018-05-28T11:56:25.677Z,3.60
2018-05-28T11:57:25.861Z,4.00
2018-05-28T11:58:26.042Z,3.70
2018-05-28T11:59:26.225Z,3.90
2018-05-28T12:00:26.411Z,4.00
2018-05-28T12:01:26.603Z,3.80
2018-05-28T12:02:26.790Z,4.30
2018-05-28T12:03:26.975Z,4.00
2018-05-28T12:04:27.305Z,4.00
2018-05-28T12:05:27.314Z,4.20
2018-05-28T12:06:27.511Z,4.30
2018-05-28T12:07:27.741Z,3.90
2018-05-28T12:08:27.933Z,4.20
2018-05-28T12:09:28.245Z,4.30
2018-05-28T12:10:28.342Z,4.50
2018-05-28T12:11:28.571Z,4.00
2018-05-28T12:12:28.788Z,4.20
2018-05-28T12:13:29.082Z,4.20
2018-05-28T12:14:29.138Z,3.90
2018-05-28T12:15:29.367Z,4.10
2018-05-28T12:16:29.560Z,4.00
2018-05-28T12:17:29.755Z,3.90
2018-05-28T12:18:29.949Z,3.80
2018-05-28T12:19:30.141Z,4.10
2018-05-28T12:20:30.339Z,4.20
2018-05-28T12:21:30.569Z,4.20
2018-05-28T12:22:30.741Z,4.00
2018-05-28T12:23:33.829Z,4.10
2018-05-28T12:24:31.123Z,3.80
2018-05-28T12:25:31.306Z,4.50
2018-05-28T12:26:31.577Z,4.40
2018-05-28T12:27:31.655Z,4.10
2018-05-28T12:28:31.822Z,4.10
2018-05-28T12:29:32.005Z,4.20
2018-05-28T12:30:32.195Z,3.60
2018-05-28T12:31:32.394Z,4.00
2018-05-28T12:32:32.585Z,3.90
2018-05-28T12:33:32.825Z,3.90
2018-05-28T12:34:32.975Z,4.20
2018-05-28T12:35:33.744Z,3.80
2018-05-28T12:36:33.310Z,4.00
2018-05-28T12:37:33.499Z,4.30
2018-05-28T12:38:34.036Z,4.60
2018-05-28T12:39:33.903Z,4.10
2018-05-28T12:40:34.102Z,4.10
2018-05-28T12:41:34.303Z,3.80
2018-05-28T12:42:34.530Z,4.60
2018-05-28T12:43:34.669Z,4.30
2018-05-28T12:44:34.908Z,4.30
2018-05-28T12:45:35.099Z,4.40
2018-05-28T12:46:35.314Z,4.50
2018-05-28T12:47:35.518Z,4.40
2018-05-28T12:48:35.722Z,4.50
2018-05-28T12:49:35.915Z,5.00
2018-05-28T12:50:36.098Z,4.50
2018-05-28T12:51:36.301Z,4.60
2018-05-28T12:52:36.505Z,4.20
2018-05-28T12:53:36.669Z,4.60
2018-05-28T12:54:36.860Z,4.60
2018-05-28T12:55:37.650Z,4.80
2018-05-28T12:56:37.246Z,4.50
2018-05-28T12:57:37.466Z,4.60
2018-05-28T12:58:37.640Z,4.50
2018-05-28T12:59:37.832Z,4.80
2018-05-28T13:00:38.021Z,4.50
2018-05-28T13:01:38.198Z,4.90
2018-05-28T13:02:38.391Z,4.90
2018-05-28T13:03:38.599Z,4.80
2018-05-28T13:04:38.775Z,4.70
2018-05-28T13:05:39.025Z,4.70
2018-05-28T13:06:39.172Z,4.60
2018-05-28T13:07:39.372Z,4.60
2018-05-28T13:08:39.586Z,4.80